createdAt,value
2023-03-06T00:00:19.896Z,3.93
2023-03-06T00:02:47.947Z,3.83
2023-03-06T00:05:16.160Z,3.88
2023-03-06T00:07:44.260Z,3.94
2023-03-06T00:10:14.044Z,3.90
2023-03-06T00:12:42.028Z,3.73
2023-03-06T00:15:10.707Z,3.47
2023-03-06T00:17:40.208Z,3.67
2023-03-06T00:20:09.537Z,3.48
2023-03-06T00:22:37.683Z,3.49
2023-03-06T00:25:06.476Z,3.51
2023-03-06T00:27:34.580Z,3.33
2023-03-06T00:30:02.711Z,3.36
2023-03-06T00:32:30.814Z,3.36
2023-03-06T00:35:00.282Z,3.33
2023-03-06T00:37:28.488Z,3.24
2023-03-06T00:39:56.597Z,3.03
2023-03-06T00:42:24.646Z,3.22
2023-03-06T00:44:52.729Z,3.01
2023-03-06T00:47:20.846Z,3.29
2023-03-06T00:49:48.939Z,3.19
2023-03-06T00:52:18.368Z,3.18
2023-03-06T00:54:46.443Z,3.21
2023-03-06T00:57:14.477Z,3.09
2023-03-06T00:59:42.981Z,2.92
2023-03-06T01:02:11.247Z,3.16
2023-03-06T01:04:39.452Z,2.89
2023-03-06T01:07:07.514Z,3.03
2023-03-06T01:09:37.202Z,3.07
2023-03-06T01:12:05.648Z,3.11
2023-03-06T01:14:33.746Z,3.39
2023-03-06T01:17:01.742Z,3.37
2023-03-06T01:19:29.766Z,3.17
2023-03-06T01:21:57.819Z,3.26
2023-03-06T01:24:26.113Z,3.33
2023-03-06T01:26:55.858Z,3.25
2023-03-06T01:29:24.238Z,3.11
2023-03-06T01:31:52.318Z,3.20
2023-03-06T01:34:20.349Z,2.97
2023-03-06T01:36:48.410Z,3.14
2023-03-06T01:39:16.489Z,3.21
2023-03-06T01:41:44.543Z,3.30
2023-03-06T01:44:14.638Z,3.19
2023-03-06T01:46:43.166Z,3.15
2023-03-06T01:49:15.468Z,2.87
2023-03-06T01:51:47.194Z,3.09
2023-03-06T01:54:17.595Z,3.23
2023-03-06T01:56:46.460Z,3.13
2023-03-06T01:59:15.961Z,3.23
2023-03-06T02:01:44.381Z,3.18
2023-03-06T02:04:12.582Z,3.22
2023-03-06T02:06:43.198Z,3.21
2023-03-06T02:09:12.069Z,3.12
2023-03-06T02:11:43.926Z,3.22
2023-03-06T02:14:13.274Z,3.11
2023-03-06T02:16:42.813Z,3.20
2023-03-06T02:19:18.127Z,3.23
2023-03-06T02:21:46.241Z,3.03
2023-03-06T02:24:21.183Z,3.00
2023-03-06T02:26:50.703Z,2.81
2023-03-06T02:29:22.126Z,2.64
2023-03-06T02:31:50.403Z,2.52
2023-03-06T02:34:57.821Z,2.69
2023-03-06T02:37:26.892Z,2.73
2023-03-06T02:39:59.110Z,2.64
2023-03-06T02:42:29.199Z,2.63
2023-03-06T02:44:57.734Z,2.70
2023-03-06T02:47:26.259Z,2.61
2023-03-06T02:49:54.419Z,2.64
2023-03-06T02:52:22.502Z,2.80
2023-03-06T02:54:50.502Z,2.87
2023-03-06T02:57:18.609Z,2.66
2023-03-06T02:59:48.046Z,2.72
2023-03-06T03:02:16.126Z,2.82
2023-03-06T03:04:44.251Z,2.78
2023-03-06T03:07:12.566Z,2.62
2023-03-06T03:09:40.652Z,2.80
2023-03-06T03:12:09.424Z,2.93
2023-03-06T03:14:37.458Z,3.00
2023-03-06T03:17:07.833Z,2.65
2023-03-06T03:19:36.151Z,2.97
2023-03-06T03:22:04.350Z,2.84
2023-03-06T03:24:32.420Z,2.79
2023-03-06T03:27:01.119Z,3.08
2023-03-06T03:29:29.181Z,3.09
2023-03-06T03:31:57.161Z,3.07
2023-03-06T03:34:26.634Z,2.85
2023-03-06T03:36:54.793Z,2.80
2023-03-06T03:39:22.865Z,2.86
2023-03-06T03:41:50.988Z,2.94
2023-03-06T03:44:19.125Z,2.96
2023-03-06T03:46:47.259Z,2.91
2023-03-06T03:49:15.322Z,2.93
2023-03-06T03:51:45.034Z,2.98
2023-03-06T03:54:13.069Z,2.82
2023-03-06T03:56:41.863Z,2.69
2023-03-06T03:59:09.943Z,2.73
2023-03-06T04:01:39.694Z,2.75
2023-03-06T04:04:07.926Z,2.74
2023-03-06T04:06:35.937Z,2.78
2023-03-06T04:09:05.479Z,2.59
2023-03-06T04:11:34.272Z,2.87
2023-03-06T04:14:03.379Z,2.60
2023-03-06T04:16:31.451Z,2.72
2023-03-06T04:18:59.564Z,2.73
2023-03-06T04:21:28.022Z,2.57
2023-03-06T04:23:56.092Z,2.71
2023-03-06T04:26:25.522Z,2.72
2023-03-06T04:28:55.632Z,2.62
2023-03-06T04:31:23.710Z,2.63
2023-03-06T04:33:51.766Z,2.48
2023-03-06T04:36:26.818Z,2.65
2023-03-06T04:38:54.934Z,2.60
2023-03-06T04:41:23.168Z,2.66
2023-03-06T04:43:52.847Z,2.55
2023-03-06T04:46:20.864Z,2.58
2023-03-06T04:48:49.316Z,2.80
2023-03-06T04:51:17.412Z,2.77
2023-03-06T04:53:45.441Z,2.85
2023-03-06T04:56:13.712Z,2.87
2023-03-06T04:58:41.720Z,2.77
2023-03-06T05:01:11.176Z,2.78
2023-03-06T05:03:39.257Z,2.54
2023-03-06T05:06:08.137Z,2.88
2023-03-06T05:08:36.801Z,2.81
2023-03-06T05:11:05.052Z,2.82
2023-03-06T05:13:33.634Z,2.73
2023-03-06T05:16:04.794Z,2.76
2023-03-06T05:18:34.461Z,2.83
2023-03-06T05:21:02.603Z,2.79
2023-03-06T05:23:30.917Z,2.78
2023-03-06T05:25:58.962Z,2.62
2023-03-06T05:28:27.110Z,2.78
2023-03-06T05:30:55.113Z,2.81
2023-03-06T05:33:23.145Z,2.78
2023-03-06T05:35:52.640Z,2.77
2023-03-06T05:38:20.682Z,2.70
2023-03-06T05:40:49.229Z,2.76
2023-03-06T05:43:17.263Z,2.71
2023-03-06T05:45:45.316Z,2.66
2023-03-06T05:48:14.088Z,2.55
2023-03-06T05:50:42.058Z,2.58
2023-03-06T05:53:12.143Z,2.64
2023-03-06T05:55:40.226Z,2.81
2023-03-06T05:58:08.270Z,2.83
2023-03-06T06:00:36.266Z,2.63
2023-03-06T06:03:05.863Z,2.78
2023-03-06T06:05:34.071Z,2.79
2023-03-06T06:08:02.144Z,2.74
2023-03-06T06:10:31.606Z,2.78
2023-03-06T06:12:59.622Z,2.72
2023-03-06T06:15:28.987Z,2.67
2023-03-06T06:17:57.000Z,2.84
2023-03-06T06:20:25.198Z,2.68
2023-03-06T06:22:53.612Z,2.75
2023-03-06T06:25:21.607Z,2.81
2023-03-06T06:27:51.197Z,2.78
2023-03-06T06:30:19.889Z,2.73
2023-03-06T06:32:48.276Z,2.77
2023-03-06T06:35:18.932Z,2.81
2023-03-06T06:37:47.144Z,2.63
2023-03-06T06:40:15.734Z,2.73
2023-03-06T06:42:44.174Z,2.83
2023-03-06T06:45:14.993Z,2.83
2023-03-06T06:47:43.502Z,2.84
2023-03-06T06:50:13.292Z,2.82
2023-03-06T06:52:41.878Z,2.92
2023-03-06T06:55:10.633Z,2.83
2023-03-06T06:57:39.843Z,2.72
2023-03-06T07:00:10.087Z,2.66
2023-03-06T07:02:43.042Z,2.79
2023-03-06T07:05:11.691Z,2.90
2023-03-06T07:07:40.384Z,2.58
2023-03-06T07:10:09.933Z,2.75
2023-03-06T07:12:38.368Z,2.77
2023-03-06T07:15:07.287Z,2.93
2023-03-06T07:17:35.514Z,3.04
2023-03-06T07:20:07.214Z,3.11
2023-03-06T07:22:48.696Z,2.95
2023-03-06T07:25:18.906Z,3.20
2023-03-06T07:27:53.332Z,3.25
2023-03-06T07:30:22.176Z,3.23
2023-03-06T07:32:51.603Z,3.21
2023-03-06T07:35:21.612Z,3.22
2023-03-06T07:37:52.558Z,3.16
2023-03-06T07:40:20.932Z,2.84
2023-03-06T07:42:49.962Z,2.78
2023-03-06T07:45:18.094Z,3.11
2023-03-06T07:47:46.793Z,2.91
2023-03-06T07:50:15.167Z,3.11
2023-03-06T07:52:45.858Z,3.20
2023-03-06T07:55:14.123Z,3.03
2023-03-06T07:57:42.206Z,3.17
2023-03-06T08:00:12.828Z,3.11
2023-03-06T08:02:41.079Z,2.99
2023-03-06T08:05:09.658Z,3.18
2023-03-06T08:07:38.098Z,2.99
2023-03-06T08:10:08.554Z,3.18
2023-03-06T08:12:36.825Z,3.31
2023-03-06T08:15:05.400Z,3.05
2023-03-06T08:17:33.466Z,3.12
2023-03-06T08:20:01.560Z,3.12
2023-03-06T08:22:29.633Z,3.20
2023-03-06T08:24:57.780Z,3.14
2023-03-06T08:27:27.609Z,3.06
2023-03-06T08:29:55.595Z,2.99
2023-03-06T08:32:23.632Z,3.21
2023-03-06T08:34:51.744Z,3.20
2023-03-06T08:37:19.821Z,3.04
2023-03-06T08:39:47.881Z,3.30
2023-03-06T08:42:16.099Z,3.35
2023-03-06T08:44:45.920Z,3.50
2023-03-06T08:47:13.934Z,3.44
2023-03-06T08:49:43.441Z,3.42
2023-03-06T08:52:11.503Z,3.40
2023-03-06T08:54:39.511Z,3.76
2023-03-06T08:57:09.215Z,3.54
2023-03-06T08:59:37.969Z,3.59
2023-03-06T09:02:07.820Z,3.26
2023-03-06T09:04:36.369Z,3.58
2023-03-06T09:07:04.651Z,3.61
2023-03-06T09:09:32.656Z,3.41
2023-03-06T09:12:01.157Z,3.48
2023-03-06T09:14:29.211Z,3.41
2023-03-06T09:16:57.276Z,3.56
2023-03-06T09:19:26.719Z,3.41
2023-03-06T09:21:55.742Z,3.19
2023-03-06T09:24:23.996Z,3.30
2023-03-06T09:26:52.480Z,3.53
2023-03-06T09:29:20.548Z,3.83
2023-03-06T09:31:48.835Z,3.90
2023-03-06T09:34:16.919Z,3.94
2023-03-06T09:36:55.969Z,3.85
2023-03-06T09:39:24.427Z,4.05
2023-03-06T09:41:53.807Z,3.84
2023-03-06T09:44:23.895Z,4.12
2023-03-06T09:47:02.162Z,4.15
2023-03-06T09:49:52.267Z,4.11
2023-03-06T09:52:46.273Z,4.17
2023-03-06T09:55:16.628Z,4.17
2023-03-06T09:57:46.651Z,3.95
2023-03-06T10:00:16.711Z,4.04
2023-03-06T10:02:46.517Z,4.12
2023-03-06T10:05:17.354Z,4.24
2023-03-06T10:07:48.227Z,4.14
2023-03-06T10:10:20.996Z,4.18
2023-03-06T10:12:54.768Z,4.21
2023-03-06T10:15:24.378Z,4.14
2023-03-06T10:17:52.383Z,4.17
2023-03-06T10:20:22.174Z,4.09
2023-03-06T10:23:22.123Z,4.06
2023-03-06T10:25:53.627Z,4.15
2023-03-06T10:28:23.806Z,3.82
2023-03-06T10:30:54.216Z,4.04
2023-03-06T10:33:33.315Z,3.81
2023-03-06T10:36:01.838Z,3.91
2023-03-06T10:38:37.744Z,3.59
2023-03-06T10:41:08.436Z,3.85
2023-03-06T10:43:39.647Z,3.89
2023-03-06T10:46:08.435Z,3.73
2023-03-06T10:48:37.234Z,3.66
2023-03-06T10:51:18.937Z,3.68
2023-03-06T10:53:53.555Z,3.57
2023-03-06T10:56:28.880Z,3.76
2023-03-06T10:59:07.295Z,3.74
2023-03-06T11:01:35.437Z,3.62
2023-03-06T11:04:16.875Z,3.63
2023-03-06T11:06:45.094Z,3.79
2023-03-06T11:09:18.309Z,3.96
2023-03-06T11:11:46.431Z,3.93
2023-03-06T11:14:18.316Z,3.90
2023-03-06T11:16:53.170Z,3.80
2023-03-06T11:19:23.060Z,3.94
2023-03-06T11:22:01.622Z,3.79
2023-03-06T11:24:34.304Z,3.60
2023-03-06T11:27:10.820Z,3.73
2023-03-06T11:29:40.632Z,3.93
2023-03-06T11:32:12.375Z,3.81
2023-03-06T11:34:44.152Z,3.68
2023-03-06T11:37:15.277Z,4.01
2023-03-06T11:39:45.710Z,4.21
2023-03-06T11:42:17.350Z,3.89
2023-03-06T11:44:52.518Z,3.69
2023-03-06T11:47:22.281Z,3.88
2023-03-06T11:49:51.855Z,3.55
2023-03-06T11:52:23.373Z,3.63
2023-03-06T11:54:55.703Z,3.82
2023-03-06T11:57:25.776Z,3.84
2023-03-06T12:00:08.947Z,3.93
2023-03-06T12:03:01.265Z,3.80
2023-03-06T12:05:36.121Z,3.72
2023-03-06T12:08:13.139Z,3.78
2023-03-06T12:10:49.033Z,3.55
2023-03-06T12:13:27.919Z,3.68
2023-03-06T12:16:24.458Z,3.67
2023-03-06T12:18:54.812Z,3.76
2023-03-06T12:21:28.746Z,3.83
2023-03-06T12:24:10.288Z,4.02
2023-03-06T12:27:00.162Z,4.16
2023-03-06T12:29:55.576Z,4.25
2023-03-06T12:32:30.084Z,4.18
2023-03-06T12:35:06.203Z,4.30
2023-03-06T12:37:40.728Z,4.35
2023-03-06T12:40:36.481Z,4.44
2023-03-06T12:43:40.048Z,4.48
2023-03-06T12:46:12.516Z,4.24
2023-03-06T12:48:41.020Z,4.58
2023-03-06T12:51:09.115Z,4.75
2023-03-06T12:53:37.594Z,4.95
2023-03-06T12:56:06.745Z,4.72
2023-03-06T12:58:35.824Z,4.86
2023-03-06T13:01:06.085Z,4.82
2023-03-06T13:03:44.968Z,5.06
2023-03-06T13:06:51.375Z,4.87
2023-03-06T13:09:21.030Z,5.10
2023-03-06T13:11:59.995Z,5.09
2023-03-06T13:14:30.176Z,5.09
2023-03-06T13:17:18.318Z,5.47
2023-03-06T13:19:47.873Z,5.25
2023-03-06T13:22:18.093Z,5.44
2023-03-06T13:24:46.475Z,5.31
2023-03-06T13:27:14.411Z,5.64
2023-03-06T13:30:20.881Z,5.76
2023-03-06T13:32:52.918Z,5.58
2023-03-06T13:35:47.711Z,5.85
2023-03-06T13:38:33.522Z,6.13
2023-03-06T13:41:37.695Z,5.77
2023-03-06T13:44:24.559Z,5.95
2023-03-06T13:46:57.473Z,6.10
2023-03-06T13:49:25.535Z,6.16
2023-03-06T13:52:04.902Z,6.26
2023-03-06T13:54:39.380Z,6.23
2023-03-06T13:57:19.990Z,6.26
2023-03-06T14:00:24.261Z,6.06
2023-03-06T14:03:20.427Z,5.93
2023-03-06T14:05:57.729Z,5.60
2023-03-06T14:08:27.393Z,5.70
2023-03-06T14:11:05.276Z,5.58
2023-03-06T14:13:46.689Z,5.66
2023-03-06T14:16:20.858Z,5.66
2023-03-06T14:18:51.697Z,5.55
2023-03-06T14:21:27.417Z,6.05
2023-03-06T14:24:00.679Z,6.15
2023-03-06T14:26:30.608Z,6.03
2023-03-06T14:29:02.346Z,5.95
2023-03-06T14:31:32.748Z,6.07
2023-03-06T14:34:01.337Z,6.09
2023-03-06T14:36:32.054Z,6.34
2023-03-06T14:39:02.214Z,6.54
2023-03-06T14:41:33.349Z,6.07
2023-03-06T14:44:16.772Z,6.34
2023-03-06T14:46:45.373Z,6.24
2023-03-06T14:49:14.737Z,6.25
2023-03-06T14:51:47.241Z,6.07
2023-03-06T14:54:19.757Z,6.25
2023-03-06T14:56:53.105Z,6.23
2023-03-06T14:59:25.189Z,6.05
2023-03-06T15:01:53.987Z,6.07
2023-03-06T15:04:26.314Z,6.42
2023-03-06T15:06:54.931Z,6.01
2023-03-06T15:09:27.955Z,6.34
2023-03-06T15:11:59.595Z,5.88
2023-03-06T15:14:35.483Z,5.87
2023-03-06T15:17:22.921Z,6.08
2023-03-06T15:19:51.721Z,6.25
2023-03-06T15:22:38.993Z,5.99
2023-03-06T15:25:23.551Z,6.10
2023-03-06T15:27:54.385Z,5.98
2023-03-06T15:30:27.140Z,5.86
2023-03-06T15:33:10.540Z,5.75
2023-03-06T15:35:39.446Z,5.90
2023-03-06T15:38:33.165Z,5.78
2023-03-06T15:41:02.308Z,5.86
2023-03-06T15:46:53.894Z,5.72
2023-03-06T15:49:53.596Z,5.72
2023-03-06T15:52:22.046Z,5.34
2023-03-06T15:54:50.877Z,5.79
2023-03-06T15:57:21.705Z,5.65
2023-03-06T16:00:28.271Z,5.38
2023-03-06T16:02:59.478Z,5.49
2023-03-06T16:05:36.758Z,5.28
2023-03-06T16:08:09.528Z,5.33
2023-03-06T16:10:43.072Z,5.41
2023-03-06T16:13:20.014Z,5.28
2023-03-06T16:15:50.683Z,5.28
2023-03-06T16:19:01.324Z,5.12
2023-03-06T16:21:31.762Z,5.17
2023-03-06T16:24:24.772Z,5.09
2023-03-06T16:26:56.940Z,5.06
2023-03-06T16:29:28.970Z,5.11
2023-03-06T16:32:13.860Z,4.92
2023-03-06T16:34:43.769Z,4.93
2023-03-06T16:37:16.227Z,5.01
2023-03-06T16:39:50.343Z,4.93
2023-03-06T16:42:26.515Z,5.02
2023-03-06T16:45:00.747Z,4.85
2023-03-06T16:47:36.451Z,4.63
2023-03-06T16:50:04.929Z,4.73
2023-03-06T16:52:51.434Z,4.64
2023-03-06T16:55:52.389Z,4.68
2023-03-06T16:58:23.970Z,4.67
2023-03-06T17:00:54.910Z,4.59
2023-03-06T17:03:30.522Z,4.61
2023-03-06T17:05:58.716Z,4.48
2023-03-06T17:08:27.271Z,4.40
2023-03-06T17:10:55.832Z,4.57
2023-03-06T17:13:29.517Z,4.48
2023-03-06T17:15:59.497Z,4.43
2023-03-06T17:18:29.540Z,4.42
2023-03-06T17:20:58.290Z,4.28
2023-03-06T17:23:28.763Z,4.16
2023-03-06T17:26:04.541Z,4.06
2023-03-06T17:28:33.021Z,3.98
2023-03-06T17:31:01.923Z,3.90
2023-03-06T17:33:32.638Z,3.99
2023-03-06T17:36:03.569Z,3.99
2023-03-06T17:38:32.969Z,3.94
2023-03-06T17:41:06.758Z,3.86
2023-03-06T17:43:35.377Z,3.83
2023-03-06T17:46:04.652Z,3.87
2023-03-06T17:48:34.164Z,3.88
2023-03-06T17:51:02.318Z,3.75
2023-03-06T17:53:30.473Z,3.89
2023-03-06T17:55:59.368Z,3.77
2023-03-06T17:58:27.355Z,3.84
2023-03-06T18:00:55.367Z,3.73
2023-03-06T18:03:23.525Z,3.72
2023-03-06T18:06:01.004Z,3.72
2023-03-06T18:08:29.062Z,3.76
2023-03-06T18:11:00.875Z,3.76
2023-03-06T18:13:29.093Z,3.85
2023-03-06T18:15:57.242Z,3.83
2023-03-06T18:18:25.356Z,3.71
2023-03-06T18:20:53.334Z,3.60
2023-03-06T18:23:22.851Z,3.59
2023-03-06T18:25:51.975Z,3.62
2023-03-06T18:28:20.703Z,3.53
2023-03-06T18:30:49.717Z,3.58
2023-03-06T18:33:17.944Z,3.45
2023-03-06T18:35:46.990Z,3.49
2023-03-06T18:38:15.047Z,3.50
2023-03-06T18:40:44.699Z,3.68
2023-03-06T18:43:12.749Z,3.58
2023-03-06T18:45:40.875Z,3.35
2023-03-06T18:48:09.027Z,3.50
2023-03-06T18:50:37.060Z,3.55
2023-03-06T18:53:05.169Z,3.50
2023-03-06T18:55:33.217Z,3.50
2023-03-06T18:58:02.757Z,3.47
2023-03-06T19:00:30.829Z,3.51
2023-03-06T19:03:35.015Z,3.63
2023-03-06T19:06:10.964Z,3.69
2023-03-06T19:08:58.768Z,3.51
2023-03-06T19:11:39.559Z,3.43
2023-03-06T19:14:12.335Z,3.52
2023-03-06T19:16:42.374Z,3.57
2023-03-06T19:19:10.384Z,3.59
2023-03-06T19:21:50.044Z,3.50
2023-03-06T19:24:20.700Z,3.50
2023-03-06T19:26:49.482Z,3.54
2023-03-06T19:29:21.755Z,3.53
2023-03-06T19:31:52.671Z,3.58
2023-03-06T19:34:21.139Z,3.56
2023-03-06T19:36:51.281Z,3.46
2023-03-06T19:39:19.510Z,3.57
2023-03-06T19:41:48.475Z,3.80
2023-03-06T19:44:16.911Z,3.52
2023-03-06T19:46:46.362Z,3.58
2023-03-06T19:49:18.228Z,3.56
2023-03-06T19:51:46.344Z,3.52
2023-03-06T19:54:14.488Z,3.55
2023-03-06T19:56:42.761Z,3.54
2023-03-06T19:59:11.315Z,3.58
2023-03-06T20:01:39.820Z,3.65
2023-03-06T20:04:09.384Z,3.69
2023-03-06T20:06:38.851Z,3.54
2023-03-06T20:09:08.294Z,3.65
2023-03-06T20:11:36.992Z,3.52
2023-03-06T20:14:05.937Z,3.68
2023-03-06T20:16:34.427Z,3.67
2023-03-06T20:19:02.518Z,3.76
2023-03-06T20:21:33.212Z,3.55
2023-03-06T20:24:01.356Z,3.46
2023-03-06T20:26:29.866Z,3.45
2023-03-06T20:28:59.242Z,3.34
2023-03-06T20:31:28.368Z,3.26
2023-03-06T20:34:05.329Z,3.24
2023-03-06T20:36:52.301Z,2.93
2023-03-06T20:39:21.846Z,2.92
2023-03-06T20:41:49.954Z,2.88
2023-03-06T20:44:19.861Z,2.96
2023-03-06T20:46:48.290Z,2.99
2023-03-06T20:49:16.436Z,2.85
2023-03-06T20:51:45.008Z,2.89
2023-03-06T20:54:15.568Z,2.78
2023-03-06T20:56:46.140Z,2.80
2023-03-06T20:59:14.214Z,2.78
2023-03-06T21:01:43.130Z,2.78
2023-03-06T21:04:13.587Z,2.66
2023-03-06T21:06:42.050Z,2.61
2023-03-06T21:09:10.138Z,2.85
2023-03-06T21:11:39.502Z,2.74
2023-03-06T21:14:07.616Z,2.71
2023-03-06T21:16:35.974Z,2.70
2023-03-06T21:19:05.588Z,2.57
2023-03-06T21:21:34.416Z,2.69
2023-03-06T21:24:02.819Z,2.50
2023-03-06T21:26:33.681Z,2.49
2023-03-06T21:29:03.308Z,2.45
2023-03-06T21:31:31.535Z,2.51
2023-03-06T21:33:59.877Z,2.42
2023-03-06T21:36:28.288Z,2.33
2023-03-06T21:38:56.473Z,2.40
2023-03-06T21:41:25.406Z,2.34
2023-03-06T21:43:56.957Z,2.40
2023-03-06T21:46:26.551Z,2.32
2023-03-06T21:48:54.573Z,2.26
2023-03-06T21:51:23.622Z,2.27
2023-03-06T21:53:52.473Z,2.12
2023-03-06T21:56:21.642Z,2.22
2023-03-06T21:58:54.590Z,2.16
2023-03-06T22:01:23.981Z,2.13
2023-03-06T22:03:53.529Z,2.17
2023-03-06T22:06:23.427Z,2.15
2023-03-06T22:08:52.033Z,2.14
2023-03-06T22:11:22.024Z,2.16
2023-03-06T22:13:50.784Z,2.12
2023-03-06T22:16:21.032Z,2.13
2023-03-06T22:18:49.822Z,2.05
2023-03-06T22:21:21.316Z,2.11
2023-03-06T22:23:50.479Z,1.96
2023-03-06T22:26:19.137Z,2.05
2023-03-06T22:28:47.352Z,2.15
2023-03-06T22:31:16.559Z,1.96
2023-03-06T22:33:44.646Z,1.96
2023-03-06T22:36:13.910Z,2.05
2023-03-06T22:38:43.887Z,1.96
2023-03-06T22:41:12.096Z,2.00
2023-03-06T22:43:40.057Z,2.02
2023-03-06T22:46:08.805Z,1.97
2023-03-06T22:48:36.869Z,1.82
2023-03-06T22:51:09.386Z,1.87
2023-03-06T22:53:37.421Z,1.93
2023-03-06T22:56:07.960Z,2.10
2023-03-06T22:58:37.492Z,2.04
2023-03-06T23:01:08.589Z,1.88
2023-03-06T23:03:37.705Z,2.04
2023-03-06T23:06:09.411Z,1.99
2023-03-06T23:08:37.450Z,1.97
2023-03-06T23:11:10.240Z,1.91
2023-03-06T23:13:39.027Z,1.90
2023-03-06T23:16:07.996Z,1.94
2023-03-06T23:18:36.095Z,1.89
2023-03-06T23:21:07.835Z,1.95
2023-03-06T23:23:35.904Z,1.97
2023-03-06T23:26:04.043Z,1.95
2023-03-06T23:28:33.537Z,1.88
2023-03-06T23:31:02.466Z,1.90
2023-03-06T23:33:30.604Z,2.04
2023-03-06T23:36:03.222Z,2.00
2023-03-06T23:38:31.314Z,2.10
2023-03-06T23:41:06.745Z,2.13
2023-03-06T23:43:36.481Z,2.22
2023-03-06T23:46:05.039Z,2.21
2023-03-06T23:48:33.466Z,2.16
2023-03-06T23:51:01.559Z,2.16
2023-03-06T23:53:29.574Z,2.33
2023-03-06T23:55:57.893Z,2.13
2023-03-06T23:58:26.114Z,2.09
